sensor_id;sensor_type;location;lat;lon;timestamp;temperature;humidity
43087;DHT22;28708;52.224;6.924;2024-02-15T00:00:21;12.70;99.90
43087;DHT22;28708;52.224;6.924;2024-02-15T00:02:48;12.70;99.90
43087;DHT22;28708;52.224;6.924;2024-02-15T00:05:14;12.70;99.90
43087;DHT22;28708;52.224;6.924;2024-02-15T00:07:43;12.70;99.90
43087;DHT22;28708;52.224;6.924;2024-02-15T00:10:09;12.70;99.90
43087;DHT22;28708;52.224;6.924;2024-02-15T00:12:35;12.70;99.90
43087;DHT22;28708;52.224;6.924;2024-02-15T00:15:01;12.70;99.90
43087;DHT22;28708;52.224;6.924;2024-02-15T00:17:27;12.70;99.90
43087;DHT22;28708;52.224;6.924;2024-02-15T00:19:55;12.70;99.90
43087;DHT22;28708;52.224;6.924;2024-02-15T00:22:20;12.70;99.90
43087;DHT22;28708;52.224;6.924;2024-02-15T00:24:47;12.70;99.90
43087;DHT22;28708;52.224;6.924;2024-02-15T00:27:15;12.70;99.90
43087;DHT22;28708;52.224;6.924;2024-02-15T00:29:41;12.60;99.90
43087;DHT22;28708;52.224;6.924;2024-02-15T00:32:07;12.60;99.90
43087;DHT22;28708;52.224;6.924;2024-02-15T00:34:32;12.60;99.90
43087;DHT22;28708;52.224;6.924;2024-02-15T00:36:59;12.70;99.90
43087;DHT22;28708;52.224;6.924;2024-02-15T00:39:24;12.60;99.90
43087;DHT22;28708;52.224;6.924;2024-02-15T00:41:50;12.60;99.90
43087;DHT22;28708;52.224;6.924;2024-02-15T00:44:16;12.60;99.90
43087;DHT22;28708;52.224;6.924;2024-02-15T00:46:43;12.60;99.90
43087;DHT22;28708;52.224;6.924;2024-02-15T00:49:09;12.60;99.90
43087;DHT22;28708;52.224;6.924;2024-02-15T00:51:37;12.60;99.90
43087;DHT22;28708;52.224;6.924;2024-02-15T00:54:03;12.60;99.90
43087;DHT22;28708;52.224;6.924;2024-02-15T00:56:29;12.60;99.90
43087;DHT22;28708;52.224;6.924;2024-02-15T00:59:01;12.60;99.90
43087;DHT22;28708;52.224;6.924;2024-02-15T01:01:27;12.60;99.90
43087;DHT22;28708;52.224;6.924;2024-02-15T01:03:52;12.60;99.90
43087;DHT22;28708;52.224;6.924;2024-02-15T01:06:18;12.60;99.90
43087;DHT22;28708;52.224;6.924;2024-02-15T01:08:44;12.60;99.90
43087;DHT22;28708;52.224;6.924;2024-02-15T01:11:09;12.60;99.90
43087;DHT22;28708;52.224;6.924;2024-02-15T01:13:35;12.60;99.90
43087;DHT22;28708;52.224;6.924;2024-02-15T01:16:01;12.60;99.90
43087;DHT22;28708;52.224;6.924;2024-02-15T01:18:29;12.60;99.90
43087;DHT22;28708;52.224;6.924;2024-02-15T01:20:55;12.60;99.90
43087;DHT22;28708;52.224;6.924;2024-02-15T01:23:21;12.60;99.90
43087;DHT22;28708;52.224;6.924;2024-02-15T01:25:48;12.60;99.90
43087;DHT22;28708;52.224;6.924;2024-02-15T01:28:14;12.60;99.90
43087;DHT22;28708;52.224;6.924;2024-02-15T01:30:40;12.60;99.90
43087;DHT22;28708;52.224;6.924;2024-02-15T01:33:06;12.60;99.90
43087;DHT22;28708;52.224;6.924;2024-02-15T01:35:31;12.60;99.90
43087;DHT22;28708;52.224;6.924;2024-02-15T01:37:57;12.60;99.90
43087;DHT22;28708;52.224;6.924;2024-02-15T01:40:22;12.60;99.90
43087;DHT22;28708;52.224;6.924;2024-02-15T01:42:48;12.60;99.90
43087;DHT22;28708;52.224;6.924;2024-02-15T01:45:16;12.70;99.90
43087;DHT22;28708;52.224;6.924;2024-02-15T01:47:42;12.60;99.90
43087;DHT22;28708;52.224;6.924;2024-02-15T01:50:12;12.60;99.90
43087;DHT22;28708;52.224;6.924;2024-02-15T01:52:39;12.60;99.90
43087;DHT22;28708;52.224;6.924;2024-02-15T01:55:06;12.60;99.90
43087;DHT22;28708;52.224;6.924;2024-02-15T01:57:36;12.70;99.90
43087;DHT22;28708;52.224;6.924;2024-02-15T02:00:06;12.60;99.90
43087;DHT22;28708;52.224;6.924;2024-02-15T02:02:35;12.60;99.90
43087;DHT22;28708;52.224;6.924;2024-02-15T02:05:02;12.70;99.90
43087;DHT22;28708;52.224;6.924;2024-02-15T02:07:28;12.70;99.90
43087;DHT22;28708;52.224;6.924;2024-02-15T02:09:54;12.70;99.90
43087;DHT22;28708;52.224;6.924;2024-02-15T02:12:20;12.70;99.90
43087;DHT22;28708;52.224;6.924;2024-02-15T02:14:45;12.60;99.90
43087;DHT22;28708;52.224;6.924;2024-02-15T02:19:39;12.70;99.90
43087;DHT22;28708;52.224;6.924;2024-02-15T02:22:05;12.70;99.90
43087;DHT22;28708;52.224;6.924;2024-02-15T02:24:33;12.60;99.90
43087;DHT22;28708;52.224;6.924;2024-02-15T02:27:05;12.60;99.90
43087;DHT22;28708;52.224;6.924;2024-02-15T02:29:30;12.60;99.90
43087;DHT22;28708;52.224;6.924;2024-02-15T02:31:57;12.60;99.90
43087;DHT22;28708;52.224;6.924;2024-02-15T02:34:22;12.70;99.90
43087;DHT22;28708;52.224;6.924;2024-02-15T02:36:48;12.60;99.90
43087;DHT22;28708;52.224;6.924;2024-02-15T02:39:15;12.60;99.90
43087;DHT22;28708;52.224;6.924;2024-02-15T02:41:42;12.70;99.90
43087;DHT22;28708;52.224;6.924;2024-02-15T02:44:08;12.70;99.90
43087;DHT22;28708;52.224;6.924;2024-02-15T02:46:33;12.60;99.90
43087;DHT22;28708;52.224;6.924;2024-02-15T02:48:59;12.70;99.90
43087;DHT22;28708;52.224;6.924;2024-02-15T02:51:25;12.60;99.90
43087;DHT22;28708;52.224;6.924;2024-02-15T02:53:50;12.70;99.90
43087;DHT22;28708;52.224;6.924;2024-02-15T02:56:16;12.70;99.90
43087;DHT22;28708;52.224;6.924;2024-02-15T02:58:44;12.70;99.90
43087;DHT22;28708;52.224;6.924;2024-02-15T03:01:10;12.80;99.90
43087;DHT22;28708;52.224;6.924;2024-02-15T03:03:37;12.70;99.90
43087;DHT22;28708;52.224;6.924;2024-02-15T03:06:04;12.80;99.90
43087;DHT22;28708;52.224;6.924;2024-02-15T03:08:30;12.80;99.90
43087;DHT22;28708;52.224;6.924;2024-02-15T03:10:55;12.80;99.90
43087;DHT22;28708;52.224;6.924;2024-02-15T03:13:21;12.80;99.90
43087;DHT22;28708;52.224;6.924;2024-02-15T03:15:47;12.80;99.90
43087;DHT22;28708;52.224;6.924;2024-02-15T03:18:17;12.70;99.90
43087;DHT22;28708;52.224;6.924;2024-02-15T03:20:43;12.80;99.90
43087;DHT22;28708;52.224;6.924;2024-02-15T03:23:09;12.80;99.90
43087;DHT22;28708;52.224;6.924;2024-02-15T03:25:34;12.80;99.90
43087;DHT22;28708;52.224;6.924;2024-02-15T03:28:01;12.80;99.90
43087;DHT22;28708;52.224;6.924;2024-02-15T03:30:31;12.80;99.90
43087;DHT22;28708;52.224;6.924;2024-02-15T03:32:57;12.80;99.90
43087;DHT22;28708;52.224;6.924;2024-02-15T03:35:25;12.80;99.90
43087;DHT22;28708;52.224;6.924;2024-02-15T03:37:52;12.70;99.90
43087;DHT22;28708;52.224;6.924;2024-02-15T03:40:19;12.80;99.90
43087;DHT22;28708;52.224;6.924;2024-02-15T03:42:45;12.70;99.90
43087;DHT22;28708;52.224;6.924;2024-02-15T03:45:12;12.80;99.90
43087;DHT22;28708;52.224;6.924;2024-02-15T03:47:38;12.70;99.90
43087;DHT22;28708;52.224;6.924;2024-02-15T03:50:08;12.70;99.90
43087;DHT22;28708;52.224;6.924;2024-02-15T03:52:38;12.70;99.90
43087;DHT22;28708;52.224;6.924;2024-02-15T03:55:05;12.70;99.90
43087;DHT22;28708;52.224;6.924;2024-02-15T03:57:32;12.70;99.90
43087;DHT22;28708;52.224;6.924;2024-02-15T03:59:59;12.70;99.90
43087;DHT22;28708;52.224;6.924;2024-02-15T04:02:25;12.70;99.90
43087;DHT22;28708;52.224;6.924;2024-02-15T04:04:56;12.70;99.90
43087;DHT22;28708;52.224;6.924;2024-02-15T04:07:22;12.70;99.90
43087;DHT22;28708;52.224;6.924;2024-02-15T04:09:51;12.70;99.90
43087;DHT22;28708;52.224;6.924;2024-02-15T04:12:16;12.70;99.90
43087;DHT22;28708;52.224;6.924;2024-02-15T04:14:43;12.70;99.90
43087;DHT22;28708;52.224;6.924;2024-02-15T04:17:11;12.70;99.90
43087;DHT22;28708;52.224;6.924;2024-02-15T04:19:39;12.70;99.90
43087;DHT22;28708;52.224;6.924;2024-02-15T04:22:05;12.70;99.90
43087;DHT22;28708;52.224;6.924;2024-02-15T04:24:33;12.60;99.90
43087;DHT22;28708;52.224;6.924;2024-02-15T04:27:00;12.70;99.90
43087;DHT22;28708;52.224;6.924;2024-02-15T04:29:25;12.70;99.90
43087;DHT22;28708;52.224;6.924;2024-02-15T04:31:51;12.70;99.90
43087;DHT22;28708;52.224;6.924;2024-02-15T04:34:19;12.70;99.90
43087;DHT22;28708;52.224;6.924;2024-02-15T04:36:46;12.70;99.90
43087;DHT22;28708;52.224;6.924;2024-02-15T04:39:15;12.60;99.90
43087;DHT22;28708;52.224;6.924;2024-02-15T04:41:50;12.70;99.90
43087;DHT22;28708;52.224;6.924;2024-02-15T04:44:16;12.70;99.90
43087;DHT22;28708;52.224;6.924;2024-02-15T04:46:41;12.70;99.90
43087;DHT22;28708;52.224;6.924;2024-02-15T04:49:10;12.60;99.90
43087;DHT22;28708;52.224;6.924;2024-02-15T04:51:36;12.60;99.90
43087;DHT22;28708;52.224;6.924;2024-02-15T04:54:02;12.70;99.90
43087;DHT22;28708;52.224;6.924;2024-02-15T04:56:27;12.60;99.90
43087;DHT22;28708;52.224;6.924;2024-02-15T04:58:53;12.60;99.90
43087;DHT22;28708;52.224;6.924;2024-02-15T05:01:19;12.60;99.90
43087;DHT22;28708;52.224;6.924;2024-02-15T05:03:45;12.60;99.90
43087;DHT22;28708;52.224;6.924;2024-02-15T05:06:11;12.60;99.90
43087;DHT22;28708;52.224;6.924;2024-02-15T05:08:41;12.60;99.90
43087;DHT22;28708;52.224;6.924;2024-02-15T05:11:08;12.60;99.90
43087;DHT22;28708;52.224;6.924;2024-02-15T05:13:40;12.60;99.90
43087;DHT22;28708;52.224;6.924;2024-02-15T05:16:05;12.60;99.90
43087;DHT22;28708;52.224;6.924;2024-02-15T05:18:31;12.60;99.90
43087;DHT22;28708;52.224;6.924;2024-02-15T05:20:57;12.60;99.90
43087;DHT22;28708;52.224;6.924;2024-02-15T05:23:23;12.60;99.90
43087;DHT22;28708;52.224;6.924;2024-02-15T05:25:48;12.60;99.90
43087;DHT22;28708;52.224;6.924;2024-02-15T05:28:14;12.60;99.90
43087;DHT22;28708;52.224;6.924;2024-02-15T05:30:39;12.60;99.90
43087;DHT22;28708;52.224;6.924;2024-02-15T05:33:05;12.60;99.90
43087;DHT22;28708;52.224;6.924;2024-02-15T05:35:35;12.50;99.90
43087;DHT22;28708;52.224;6.924;2024-02-15T05:38:04;12.60;99.90
43087;DHT22;28708;52.224;6.924;2024-02-15T05:40:32;12.60;99.90
43087;DHT22;28708;52.224;6.924;2024-02-15T05:42:57;12.60;99.90
43087;DHT22;28708;52.224;6.924;2024-02-15T05:47:52;12.60;99.90
43087;DHT22;28708;52.224;6.924;2024-02-15T05:50:18;12.60;99.90
43087;DHT22;28708;52.224;6.924;2024-02-15T05:52:50;12.60;99.90
43087;DHT22;28708;52.224;6.924;2024-02-15T05:55:18;12.60;99.90
43087;DHT22;28708;52.224;6.924;2024-02-15T05:57:44;12.60;99.90
43087;DHT22;28708;52.224;6.924;2024-02-15T06:00:11;12.60;99.90
43087;DHT22;28708;52.224;6.924;2024-02-15T06:02:36;12.60;99.90
43087;DHT22;28708;52.224;6.924;2024-02-15T06:05:02;12.60;99.90
43087;DHT22;28708;52.224;6.924;2024-02-15T06:07:30;12.60;99.90
43087;DHT22;28708;52.224;6.924;2024-02-15T06:09:57;12.60;99.90
43087;DHT22;28708;52.224;6.924;2024-02-15T06:12:23;12.50;99.90
43087;DHT22;28708;52.224;6.924;2024-02-15T06:14:49;12.50;99.90
43087;DHT22;28708;52.224;6.924;2024-02-15T06:17:15;12.50;99.90
43087;DHT22;28708;52.224;6.924;2024-02-15T06:19:40;12.60;99.90
43087;DHT22;28708;52.224;6.924;2024-02-15T06:22:06;12.60;99.90
43087;DHT22;28708;52.224;6.924;2024-02-15T06:24:33;12.50;99.90
43087;DHT22;28708;52.224;6.924;2024-02-15T06:26:59;12.60;99.90
43087;DHT22;28708;52.224;6.924;2024-02-15T06:29:25;12.60;99.90
43087;DHT22;28708;52.224;6.924;2024-02-15T06:32:10;12.50;99.90
43087;DHT22;28708;52.224;6.924;2024-02-15T06:34:54;12.60;99.90
43087;DHT22;28708;52.224;6.924;2024-02-15T06:37:39;12.60;99.90
43087;DHT22;28708;52.224;6.924;2024-02-15T06:40:24;12.60;99.90
43087;DHT22;28708;52.224;6.924;2024-02-15T06:42:50;12.60;99.90
43087;DHT22;28708;52.224;6.924;2024-02-15T06:45:16;12.60;99.90
43087;DHT22;28708;52.224;6.924;2024-02-15T06:47:43;12.60;99.90
43087;DHT22;28708;52.224;6.924;2024-02-15T06:50:12;12.60;99.90
43087;DHT22;28708;52.224;6.924;2024-02-15T06:52:40;12.60;99.90
43087;DHT22;28708;52.224;6.924;2024-02-15T06:55:09;12.60;99.90
43087;DHT22;28708;52.224;6.924;2024-02-15T06:57:38;12.50;99.90
43087;DHT22;28708;52.224;6.924;2024-02-15T07:00:07;12.60;99.90
43087;DHT22;28708;52.224;6.924;2024-02-15T07:02:35;12.60;99.90
43087;DHT22;28708;52.224;6.924;2024-02-15T07:05:01;12.50;99.90
43087;DHT22;28708;52.224;6.924;2024-02-15T07:07:28;12.50;99.90
43087;DHT22;28708;52.224;6.924;2024-02-15T07:09:54;12.50;99.90
43087;DHT22;28708;52.224;6.924;2024-02-15T07:12:20;12.50;99.90
43087;DHT22;28708;52.224;6.924;2024-02-15T07:14:47;12.50;99.90
43087;DHT22;28708;52.224;6.924;2024-02-15T07:17:13;12.50;99.90
43087;DHT22;28708;52.224;6.924;2024-02-15T07:19:43;12.50;99.90
43087;DHT22;28708;52.224;6.924;2024-02-15T07:22:10;12.50;99.90
43087;DHT22;28708;52.224;6.924;2024-02-15T07:24:36;12.50;99.90
43087;DHT22;28708;52.224;6.924;2024-02-15T07:27:05;12.50;99.90
43087;DHT22;28708;52.224;6.924;2024-02-15T07:29:30;12.40;99.90
43087;DHT22;28708;52.224;6.924;2024-02-15T07:32:01;12.50;99.90
43087;DHT22;28708;52.224;6.924;2024-02-15T07:34:30;12.50;99.90
43087;DHT22;28708;52.224;6.924;2024-02-15T07:36:56;12.50;99.90
43087;DHT22;28708;52.224;6.924;2024-02-15T07:39:23;12.50;99.90
43087;DHT22;28708;52.224;6.924;2024-02-15T07:41:51;12.50;99.90
43087;DHT22;28708;52.224;6.924;2024-02-15T07:44:17;12.50;99.90
43087;DHT22;28708;52.224;6.924;2024-02-15T07:46:43;12.50;99.90
43087;DHT22;28708;52.224;6.924;2024-02-15T07:49:09;12.50;99.90
43087;DHT22;28708;52.224;6.924;2024-02-15T07:51:35;12.50;99.90
43087;DHT22;28708;52.224;6.924;2024-02-15T07:54:01;12.60;99.90
43087;DHT22;28708;52.224;6.924;2024-02-15T07:56:27;12.50;99.90
43087;DHT22;28708;52.224;6.924;2024-02-15T07:58:53;12.50;99.90
43087;DHT22;28708;52.224;6.924;2024-02-15T08:01:18;12.60;99.90
43087;DHT22;28708;52.224;6.924;2024-02-15T08:03:47;12.60;99.90
43087;DHT22;28708;52.224;6.924;2024-02-15T08:06:13;12.60;99.90
43087;DHT22;28708;52.224;6.924;2024-02-15T08:08:41;12.60;99.90
43087;DHT22;28708;52.224;6.924;2024-02-15T08:11:10;12.60;99.90
43087;DHT22;28708;52.224;6.924;2024-02-15T08:13:49;12.60;99.90
43087;DHT22;28708;52.224;6.924;2024-02-15T08:16:16;12.60;99.90
43087;DHT22;28708;52.224;6.924;2024-02-15T08:18:45;12.60;99.90
43087;DHT22;28708;52.224;6.924;2024-02-15T08:21:14;12.60;99.90
43087;DHT22;28708;52.224;6.924;2024-02-15T08:23:40;12.60;99.90
43087;DHT22;28708;52.224;6.924;2024-02-15T08:26:06;12.60;99.90
43087;DHT22;28708;52.224;6.924;2024-02-15T08:28:31;12.60;99.90
43087;DHT22;28708;52.224;6.924;2024-02-15T08:30:57;12.60;99.90
43087;DHT22;28708;52.224;6.924;2024-02-15T08:33:23;12.60;99.90
43087;DHT22;28708;52.224;6.924;2024-02-15T08:35:49;12.60;99.90
43087;DHT22;28708;52.224;6.924;2024-02-15T08:38:15;12.60;99.90
43087;DHT22;28708;52.224;6.924;2024-02-15T08:40:42;12.60;99.90
43087;DHT22;28708;52.224;6.924;2024-02-15T08:43:09;12.60;99.90
43087;DHT22;28708;52.224;6.924;2024-02-15T08:45:35;12.60;99.90
43087;DHT22;28708;52.224;6.924;2024-02-15T08:48:01;12.70;99.90
43087;DHT22;28708;52.224;6.924;2024-02-15T08:50:30;12.60;99.90
43087;DHT22;28708;52.224;6.924;2024-02-15T08:52:56;12.60;99.90
43087;DHT22;28708;52.224;6.924;2024-02-15T08:55:22;12.60;99.90
43087;DHT22;28708;52.224;6.924;2024-02-15T08:57:54;12.60;99.90
43087;DHT22;28708;52.224;6.924;2024-02-15T09:00:20;12.60;99.90
43087;DHT22;28708;52.224;6.924;2024-02-15T09:02:46;12.50;99.90
43087;DHT22;28708;52.224;6.924;2024-02-15T09:05:13;12.50;99.90
43087;DHT22;28708;52.224;6.924;2024-02-15T09:07:43;12.60;99.90
43087;DHT22;28708;52.224;6.924;2024-02-15T09:10:09;12.60;99.90
43087;DHT22;28708;52.224;6.924;2024-02-15T09:12:39;12.60;99.90
43087;DHT22;28708;52.224;6.924;2024-02-15T09:15:09;12.60;99.90
43087;DHT22;28708;52.224;6.924;2024-02-15T09:17:37;12.60;99.90
43087;DHT22;28708;52.224;6.924;2024-02-15T09:20:06;12.60;99.90
43087;DHT22;28708;52.224;6.924;2024-02-15T09:22:32;12.60;99.90
43087;DHT22;28708;52.224;6.924;2024-02-15T09:24:58;12.60;99.90
43087;DHT22;28708;52.224;6.924;2024-02-15T09:27:23;12.50;99.90
43087;DHT22;28708;52.224;6.924;2024-02-15T09:29:49;12.50;99.90
43087;DHT22;28708;52.224;6.924;2024-02-15T09:32:15;12.50;99.90
43087;DHT22;28708;52.224;6.924;2024-02-15T09:34:40;12.50;99.90
43087;DHT22;28708;52.224;6.924;2024-02-15T09:37:07;12.50;99.90
43087;DHT22;28708;52.224;6.924;2024-02-15T09:39:33;12.50;99.90
43087;DHT22;28708;52.224;6.924;2024-02-15T09:41:58;12.50;99.90
43087;DHT22;28708;52.224;6.924;2024-02-15T09:44:25;12.50;99.90
43087;DHT22;28708;52.224;6.924;2024-02-15T09:47:05;12.50;99.90
43087;DHT22;28708;52.224;6.924;2024-02-15T09:49:38;12.50;99.90
43087;DHT22;28708;52.224;6.924;2024-02-15T09:52:06;12.50;99.90
43087;DHT22;28708;52.224;6.924;2024-02-15T09:54:39;12.50;99.90
43087;DHT22;28708;52.224;6.924;2024-02-15T09:57:07;12.50;99.90
43087;DHT22;28708;52.224;6.924;2024-02-15T09:59:33;12.50;99.90
43087;DHT22;28708;52.224;6.924;2024-02-15T10:02:02;12.40;99.90
43087;DHT22;28708;52.224;6.924;2024-02-15T10:04:28;12.50;99.90
43087;DHT22;28708;52.224;6.924;2024-02-15T10:06:54;12.40;99.90
43087;DHT22;28708;52.224;6.924;2024-02-15T10:09:24;12.40;99.90
43087;DHT22;28708;52.224;6.924;2024-02-15T10:12:00;12.40;99.90
43087;DHT22;28708;52.224;6.924;2024-02-15T10:14:29;12.40;99.90
43087;DHT22;28708;52.224;6.924;2024-02-15T10:16:56;12.40;99.90
43087;DHT22;28708;52.224;6.924;2024-02-15T10:19:24;12.40;99.90
43087;DHT22;28708;52.224;6.924;2024-02-15T10:22:09;12.50;99.90
43087;DHT22;28708;52.224;6.924;2024-02-15T10:24:35;12.50;99.90
43087;DHT22;28708;52.224;6.924;2024-02-15T10:27:03;12.60;99.90
43087;DHT22;28708;52.224;6.924;2024-02-15T10:29:30;12.60;99.90
43087;DHT22;28708;52.224;6.924;2024-02-15T10:31:57;12.60;99.90
43087;DHT22;28708;52.224;6.924;2024-02-15T10:34:24;12.60;99.90
43087;DHT22;28708;52.224;6.924;2024-02-15T10:36:53;12.70;99.90
43087;DHT22;28708;52.224;6.924;2024-02-15T10:39:19;12.70;99.90
43087;DHT22;28708;52.224;6.924;2024-02-15T10:41:46;12.80;99.90
43087;DHT22;28708;52.224;6.924;2024-02-15T10:44:19;12.80;99.90
43087;DHT22;28708;52.224;6.924;2024-02-15T10:46:47;12.80;99.90
43087;DHT22;28708;52.224;6.924;2024-02-15T10:49:20;12.80;99.90
43087;DHT22;28708;52.224;6.924;2024-02-15T10:51:59;12.80;99.90
43087;DHT22;28708;52.224;6.924;2024-02-15T10:54:41;12.80;99.90
43087;DHT22;28708;52.224;6.924;2024-02-15T10:57:10;12.70;99.90
43087;DHT22;28708;52.224;6.924;2024-02-15T10:59:38;12.70;99.90
43087;DHT22;28708;52.224;6.924;2024-02-15T11:02:32;12.80;99.90
43087;DHT22;28708;52.224;6.924;2024-02-15T11:05:06;12.90;99.90
43087;DHT22;28708;52.224;6.924;2024-02-15T11:07:34;12.90;99.90
43087;DHT22;28708;52.224;6.924;2024-02-15T11:10:00;12.90;99.90
43087;DHT22;28708;52.224;6.924;2024-02-15T11:12:26;12.90;99.90
43087;DHT22;28708;52.224;6.924;2024-02-15T11:14:52;12.90;99.90
43087;DHT22;28708;52.224;6.924;2024-02-15T11:20:06;13.00;99.90
43087;DHT22;28708;52.224;6.924;2024-02-15T11:22:37;13.00;99.90
43087;DHT22;28708;52.224;6.924;2024-02-15T11:25:07;13.00;99.90
43087;DHT22;28708;52.224;6.924;2024-02-15T11:27:38;13.00;99.90
43087;DHT22;28708;52.224;6.924;2024-02-15T11:30:05;13.00;99.90
43087;DHT22;28708;52.224;6.924;2024-02-15T11:35:12;13.00;99.90
43087;DHT22;28708;52.224;6.924;2024-02-15T11:41:05;13.00;99.90
43087;DHT22;28708;52.224;6.924;2024-02-15T11:46:19;13.10;99.90
43087;DHT22;28708;52.224;6.924;2024-02-15T11:48:45;13.10;99.90
43087;DHT22;28708;52.224;6.924;2024-02-15T11:54:06;13.10;99.90
43087;DHT22;28708;52.224;6.924;2024-02-15T11:56:55;13.20;99.90
43087;DHT22;28708;52.224;6.924;2024-02-15T11:59:41;13.20;99.90
43087;DHT22;28708;52.224;6.924;2024-02-15T12:02:38;13.30;99.90
43087;DHT22;28708;52.224;6.924;2024-02-15T12:05:23;13.30;99.90
43087;DHT22;28708;52.224;6.924;2024-02-15T12:08:07;13.40;99.90
43087;DHT22;28708;52.224;6.924;2024-02-15T12:11:00;13.50;99.90
43087;DHT22;28708;52.224;6.924;2024-02-15T12:13:51;13.50;99.90
43087;DHT22;28708;52.224;6.924;2024-02-15T12:16:36;13.60;99.90
43087;DHT22;28708;52.224;6.924;2024-02-15T12:19:20;13.70;99.90
43087;DHT22;28708;52.224;6.924;2024-02-15T12:21:47;13.70;99.90
43087;DHT22;28708;52.224;6.924;2024-02-15T12:24:14;13.70;99.90
43087;DHT22;28708;52.224;6.924;2024-02-15T12:26:41;13.80;99.90
43087;DHT22;28708;52.224;6.924;2024-02-15T12:29:07;13.80;99.90
43087;DHT22;28708;52.224;6.924;2024-02-15T12:31:36;13.90;99.90
43087;DHT22;28708;52.224;6.924;2024-02-15T12:34:04;13.90;99.90
43087;DHT22;28708;52.224;6.924;2024-02-15T12:36:33;13.90;99.90
43087;DHT22;28708;52.224;6.924;2024-02-15T12:39:06;14.00;99.90
43087;DHT22;28708;52.224;6.924;2024-02-15T12:41:48;14.00;99.90
43087;DHT22;28708;52.224;6.924;2024-02-15T12:44:18;13.90;99.90
43087;DHT22;28708;52.224;6.924;2024-02-15T12:46:56;14.00;99.90
43087;DHT22;28708;52.224;6.924;2024-02-15T12:51:53;14.00;99.90
43087;DHT22;28708;52.224;6.924;2024-02-15T12:54:20;14.00;99.90
43087;DHT22;28708;52.224;6.924;2024-02-15T12:56:49;14.00;99.90
43087;DHT22;28708;52.224;6.924;2024-02-15T12:59:16;14.00;99.90
43087;DHT22;28708;52.224;6.924;2024-02-15T13:01:42;14.00;99.90
43087;DHT22;28708;52.224;6.924;2024-02-15T13:04:08;14.10;99.90
43087;DHT22;28708;52.224;6.924;2024-02-15T13:06:34;14.20;99.90
43087;DHT22;28708;52.224;6.924;2024-02-15T13:09:02;14.20;99.90
43087;DHT22;28708;52.224;6.924;2024-02-15T13:11:30;14.10;99.90
43087;DHT22;28708;52.224;6.924;2024-02-15T13:13:57;14.20;99.90
43087;DHT22;28708;52.224;6.924;2024-02-15T13:16:23;14.20;99.90
43087;DHT22;28708;52.224;6.924;2024-02-15T13:18:49;14.20;99.90
43087;DHT22;28708;52.224;6.924;2024-02-15T13:21:14;14.20;99.90
43087;DHT22;28708;52.224;6.924;2024-02-15T13:23:40;14.30;99.90
43087;DHT22;28708;52.224;6.924;2024-02-15T13:26:06;14.20;99.90
43087;DHT22;28708;52.224;6.924;2024-02-15T13:28:33;14.30;99.90
43087;DHT22;28708;52.224;6.924;2024-02-15T13:30:59;14.30;99.90
43087;DHT22;28708;52.224;6.924;2024-02-15T13:33:24;14.30;99.90
43087;DHT22;28708;52.224;6.924;2024-02-15T13:35:52;14.40;99.90
43087;DHT22;28708;52.224;6.924;2024-02-15T13:38:17;14.50;99.90
43087;DHT22;28708;52.224;6.924;2024-02-15T13:40:48;14.50;99.90
43087;DHT22;28708;52.224;6.924;2024-02-15T13:43:17;14.50;99.90
43087;DHT22;28708;52.224;6.924;2024-02-15T13:45:43;14.50;99.90
43087;DHT22;28708;52.224;6.924;2024-02-15T13:48:10;14.60;99.90
43087;DHT22;28708;52.224;6.924;2024-02-15T13:50:38;14.50;99.90
43087;DHT22;28708;52.224;6.924;2024-02-15T13:53:05;14.60;99.90
43087;DHT22;28708;52.224;6.924;2024-02-15T13:55:30;14.50;99.90
43087;DHT22;28708;52.224;6.924;2024-02-15T13:57:57;14.50;99.90
43087;DHT22;28708;52.224;6.924;2024-02-15T14:00:24;14.50;99.90
43087;DHT22;28708;52.224;6.924;2024-02-15T14:02:59;14.60;99.90
43087;DHT22;28708;52.224;6.924;2024-02-15T14:05:27;14.60;99.90
43087;DHT22;28708;52.224;6.924;2024-02-15T14:08:00;14.60;99.90
43087;DHT22;28708;52.224;6.924;2024-02-15T14:10:27;14.50;99.90
43087;DHT22;28708;52.224;6.924;2024-02-15T14:12:54;14.50;99.90
43087;DHT22;28708;52.224;6.924;2024-02-15T14:15:39;14.60;99.90
43087;DHT22;28708;52.224;6.924;2024-02-15T14:18:10;14.60;99.90
43087;DHT22;28708;52.224;6.924;2024-02-15T14:20:36;14.60;99.90
43087;DHT22;28708;52.224;6.924;2024-02-15T14:23:03;14.60;99.90
43087;DHT22;28708;52.224;6.924;2024-02-15T14:25:31;14.60;99.90
43087;DHT22;28708;52.224;6.924;2024-02-15T14:27:58;14.60;99.90
43087;DHT22;28708;52.224;6.924;2024-02-15T14:30:24;14.60;99.90
43087;DHT22;28708;52.224;6.924;2024-02-15T14:33:10;14.60;99.90
43087;DHT22;28708;52.224;6.924;2024-02-15T14:35:41;14.60;99.90
43087;DHT22;28708;52.224;6.924;2024-02-15T14:38:11;14.60;99.90
43087;DHT22;28708;52.224;6.924;2024-02-15T14:40:42;14.70;99.90
43087;DHT22;28708;52.224;6.924;2024-02-15T14:43:10;14.70;99.90
43087;DHT22;28708;52.224;6.924;2024-02-15T14:45:38;14.70;99.90
43087;DHT22;28708;52.224;6.924;2024-02-15T14:48:07;14.70;99.90
43087;DHT22;28708;52.224;6.924;2024-02-15T14:50:42;14.70;99.90
43087;DHT22;28708;52.224;6.924;2024-02-15T14:53:08;14.80;99.90
43087;DHT22;28708;52.224;6.924;2024-02-15T14:55:35;14.80;99.90
43087;DHT22;28708;52.224;6.924;2024-02-15T14:58:00;14.80;99.90
43087;DHT22;28708;52.224;6.924;2024-02-15T15:00:26;14.70;99.90
43087;DHT22;28708;52.224;6.924;2024-02-15T15:02:53;14.80;99.90
43087;DHT22;28708;52.224;6.924;2024-02-15T15:05:22;14.80;99.90
43087;DHT22;28708;52.224;6.924;2024-02-15T15:08:06;14.90;99.90
43087;DHT22;28708;52.224;6.924;2024-02-15T15:10:50;14.90;99.90
43087;DHT22;28708;52.224;6.924;2024-02-15T15:13:35;14.90;99.90
43087;DHT22;28708;52.224;6.924;2024-02-15T15:16:01;15.00;99.90
43087;DHT22;28708;52.224;6.924;2024-02-15T15:18:28;15.00;99.90
43087;DHT22;28708;52.224;6.924;2024-02-15T15:20:58;15.00;99.90
43087;DHT22;28708;52.224;6.924;2024-02-15T15:23:25;15.00;99.90
43087;DHT22;28708;52.224;6.924;2024-02-15T15:25:51;15.00;99.90
43087;DHT22;28708;52.224;6.924;2024-02-15T15:28:17;15.00;99.90
43087;DHT22;28708;52.224;6.924;2024-02-15T15:30:44;15.00;99.90
43087;DHT22;28708;52.224;6.924;2024-02-15T15:33:14;15.00;99.90
43087;DHT22;28708;52.224;6.924;2024-02-15T15:35:40;15.00;99.90
43087;DHT22;28708;52.224;6.924;2024-02-15T15:38:06;15.00;99.90
43087;DHT22;28708;52.224;6.924;2024-02-15T15:40:32;14.90;99.90
43087;DHT22;28708;52.224;6.924;2024-02-15T15:42:58;14.80;99.90
43087;DHT22;28708;52.224;6.924;2024-02-15T15:45:23;14.80;99.90
43087;DHT22;28708;52.224;6.924;2024-02-15T15:47:50;14.70;99.90
43087;DHT22;28708;52.224;6.924;2024-02-15T15:50:16;14.70;99.90
43087;DHT22;28708;52.224;6.924;2024-02-15T15:52:42;14.70;99.90
43087;DHT22;28708;52.224;6.924;2024-02-15T15:55:10;14.70;99.90
43087;DHT22;28708;52.224;6.924;2024-02-15T15:57:40;14.70;99.90